sensor_id;sensor_type;location;lat;lon;timestamp;pressure;altitude;pressure_sealevel;temperature
70050;BMP180;57391;51.306;22.680;2022-08-19T00:00:38;99431.00;;;21.90
70050;BMP180;57391;51.306;22.680;2022-08-19T00:03:07;99423.40;;;21.88
70050;BMP180;57391;51.306;22.680;2022-08-19T00:05:34;99421.20;;;21.90
70050;BMP180;57391;51.306;22.680;2022-08-19T00:08:02;99421.40;;;21.90
70050;BMP180;57391;51.306;22.680;2022-08-19T00:10:30;99429.60;;;21.90
70050;BMP180;57391;51.306;22.680;2022-08-19T06:10:41;99521.60;;;30.76
70050;BMP180;57391;51.306;22.680;2022-08-19T06:13:08;99516.80;;;31.38
70050;BMP180;57391;51.306;22.680;2022-08-19T06:15:35;99522.40;;;31.88
70050;BMP180;57391;51.306;22.680;2022-08-19T06:18:02;99523.00;;;32.20
70050;BMP180;57391;51.306;22.680;2022-08-19T06:20:30;99524.60;;;32.00
70050;BMP180;57391;51.306;22.680;2022-08-19T06:22:59;99522.80;;;31.70
70050;BMP180;57391;51.306;22.680;2022-08-19T06:25:26;99524.20;;;31.40
70050;BMP180;57391;51.306;22.680;2022-08-19T06:27:53;99526.40;;;31.10
70050;BMP180;57391;51.306;22.680;2022-08-19T06:30:20;99530.80;;;30.96
70050;BMP180;57391;51.306;22.680;2022-08-19T06:32:47;99539.80;;;31.30
70050;BMP180;57391;51.306;22.680;2022-08-19T06:35:14;99538.40;;;31.78
70050;BMP180;57391;51.306;22.680;2022-08-19T06:37:41;99544.80;;;32.26
70050;BMP180;57391;51.306;22.680;2022-08-19T06:40:10;99542.40;;;32.56
70050;BMP180;57391;51.306;22.680;2022-08-19T06:42:39;99543.40;;;32.90
70050;BMP180;57391;51.306;22.680;2022-08-19T06:45:07;99544.60;;;33.24
70050;BMP180;57391;51.306;22.680;2022-08-19T06:47:35;99551.20;;;33.74
70050;BMP180;57391;51.306;22.680;2022-08-19T06:50:03;99550.20;;;34.04
70050;BMP180;57391;51.306;22.680;2022-08-19T06:52:34;99545.00;;;34.30
70050;BMP180;57391;51.306;22.680;2022-08-19T06:55:03;99542.80;;;34.30
70050;BMP180;57391;51.306;22.680;2022-08-19T06:57:30;99540.60;;;33.96
70050;BMP180;57391;51.306;22.680;2022-08-19T06:59:59;99551.60;;;33.60
70050;BMP180;57391;51.306;22.680;2022-08-19T07:02:26;99543.80;;;33.30
70050;BMP180;57391;51.306;22.680;2022-08-19T07:04:54;99537.60;;;33.10
70050;BMP180;57391;51.306;22.680;2022-08-19T07:07:24;99526.20;;;33.10
70050;BMP180;57391;51.306;22.680;2022-08-19T07:09:51;99525.40;;;33.08
70050;BMP180;57391;51.306;22.680;2022-08-19T07:12:19;99523.20;;;32.90
70050;BMP180;57391;51.306;22.680;2022-08-19T07:14:46;99524.60;;;32.70
70050;BMP180;57391;51.306;22.680;2022-08-19T07:17:15;99519.40;;;32.88
70050;BMP180;57391;51.306;22.680;2022-08-19T07:19:42;99522.60;;;32.90
70050;BMP180;57391;51.306;22.680;2022-08-19T07:22:09;99523.60;;;33.08
70050;BMP180;57391;51.306;22.680;2022-08-19T07:24:38;99526.60;;;33.20
70050;BMP180;57391;51.306;22.680;2022-08-19T07:27:06;99529.00;;;33.46
70050;BMP180;57391;51.306;22.680;2022-08-19T07:29:35;99532.40;;;33.50
70050;BMP180;57391;51.306;22.680;2022-08-19T07:32:03;99538.00;;;33.78
70050;BMP180;57391;51.306;22.680;2022-08-19T07:34:32;99544.00;;;34.16
70050;BMP180;57391;51.306;22.680;2022-08-19T07:37:07;99544.00;;;34.58
70050;BMP180;57391;51.306;22.680;2022-08-19T07:39:36;99543.80;;;34.96
70050;BMP180;57391;51.306;22.680;2022-08-19T07:42:09;99546.60;;;35.20
70050;BMP180;57391;51.306;22.680;2022-08-19T07:44:37;99541.00;;;35.20
70050;BMP180;57391;51.306;22.680;2022-08-19T07:47:05;99547.40;;;35.10
70050;BMP180;57391;51.306;22.680;2022-08-19T07:49:33;99554.00;;;34.80
70050;BMP180;57391;51.306;22.680;2022-08-19T07:52:07;99550.40;;;34.40
70050;BMP180;57391;51.306;22.680;2022-08-19T07:54:38;99547.20;;;34.10
70050;BMP180;57391;51.306;22.680;2022-08-19T07:57:06;99545.60;;;33.90
70050;BMP180;57391;51.306;22.680;2022-08-19T07:59:34;99547.60;;;34.00
70050;BMP180;57391;51.306;22.680;2022-08-19T08:02:03;99551.20;;;34.20
70050;BMP180;57391;51.306;22.680;2022-08-19T08:04:31;99553.00;;;34.28
70050;BMP180;57391;51.306;22.680;2022-08-19T08:07:18;99552.80;;;34.24
70050;BMP180;57391;51.306;22.680;2022-08-19T08:10:06;99542.80;;;34.50
70050;BMP180;57391;51.306;22.680;2022-08-19T08:12:39;99544.40;;;34.80
70050;BMP180;57391;51.306;22.680;2022-08-19T08:15:14;99554.60;;;35.00
70050;BMP180;57391;51.306;22.680;2022-08-19T08:17:46;99548.40;;;35.10
70050;BMP180;57391;51.306;22.680;2022-08-19T08:20:14;99559.00;;;35.26
70050;BMP180;57391;51.306;22.680;2022-08-19T08:22:46;99559.60;;;35.40
70050;BMP180;57391;51.306;22.680;2022-08-19T08:25:35;99571.60;;;35.50
70050;BMP180;57391;51.306;22.680;2022-08-19T08:28:03;99569.40;;;35.60
70050;BMP180;57391;51.306;22.680;2022-08-19T08:30:31;99577.40;;;35.90
70050;BMP180;57391;51.306;22.680;2022-08-19T08:33:03;99575.60;;;36.10
70050;BMP180;57391;51.306;22.680;2022-08-19T08:35:31;99579.60;;;36.22
70050;BMP180;57391;51.306;22.680;2022-08-19T08:37:58;99584.00;;;36.40
70050;BMP180;57391;51.306;22.680;2022-08-19T08:40:48;99584.60;;;36.50
70050;BMP180;57391;51.306;22.680;2022-08-19T08:43:35;99587.40;;;36.40
70050;BMP180;57391;51.306;22.680;2022-08-19T08:46:14;99586.00;;;36.20
70050;BMP180;57391;51.306;22.680;2022-08-19T08:51:48;99574.80;;;36.00
70050;BMP180;57391;51.306;22.680;2022-08-19T08:54:20;99583.40;;;35.90
70050;BMP180;57391;51.306;22.680;2022-08-19T08:56:52;99582.00;;;35.70
70050;BMP180;57391;51.306;22.680;2022-08-19T08:59:31;99574.20;;;35.52
70050;BMP180;57391;51.306;22.680;2022-08-19T09:02:01;99570.80;;;35.50
70050;BMP180;57391;51.306;22.680;2022-08-19T09:04:28;99578.40;;;35.30
70050;BMP180;57391;51.306;22.680;2022-08-19T09:10:43;99569.20;;;34.90
70050;BMP180;57391;51.306;22.680;2022-08-19T09:13:37;99575.20;;;34.80
70050;BMP180;57391;51.306;22.680;2022-08-19T09:16:16;99575.00;;;34.80
70050;BMP180;57391;51.306;22.680;2022-08-19T09:18:51;99579.00;;;34.80
70050;BMP180;57391;51.306;22.680;2022-08-19T09:21:23;99582.00;;;34.70
70050;BMP180;57391;51.306;22.680;2022-08-19T09:23:52;99582.20;;;34.80
70050;BMP180;57391;51.306;22.680;2022-08-19T09:26:22;99583.80;;;34.90
70050;BMP180;57391;51.306;22.680;2022-08-19T09:28:52;99578.40;;;34.90
70050;BMP180;57391;51.306;22.680;2022-08-19T09:31:23;99572.60;;;34.80
70050;BMP180;57391;51.306;22.680;2022-08-19T09:33:51;99578.80;;;34.70
70050;BMP180;57391;51.306;22.680;2022-08-19T09:36:20;99582.40;;;34.60
70050;BMP180;57391;51.306;22.680;2022-08-19T09:38:49;99573.60;;;34.60
70050;BMP180;57391;51.306;22.680;2022-08-19T09:41:20;99577.40;;;34.70
70050;BMP180;57391;51.306;22.680;2022-08-19T09:43:52;99574.60;;;34.78
70050;BMP180;57391;51.306;22.680;2022-08-19T09:46:26;99576.80;;;34.78
70050;BMP180;57391;51.306;22.680;2022-08-19T09:48:57;99568.80;;;34.60
70050;BMP180;57391;51.306;22.680;2022-08-19T09:51:27;99569.00;;;34.50
70050;BMP180;57391;51.306;22.680;2022-08-19T09:54:03;99561.20;;;34.58
70050;BMP180;57391;51.306;22.680;2022-08-19T09:56:32;99563.80;;;34.60
70050;BMP180;57391;51.306;22.680;2022-08-19T09:59:01;99568.60;;;34.50
70050;BMP180;57391;51.306;22.680;2022-08-19T10:01:31;99572.80;;;34.56
70050;BMP180;57391;51.306;22.680;2022-08-19T10:04:00;99565.60;;;34.62
70050;BMP180;57391;51.306;22.680;2022-08-19T10:06:29;99572.20;;;34.84
70050;BMP180;57391;51.306;22.680;2022-08-19T10:08:59;99563.40;;;34.90
70050;BMP180;57391;51.306;22.680;2022-08-19T10:11:27;99559.40;;;34.90
70050;BMP180;57391;51.306;22.680;2022-08-19T10:13:54;99555.60;;;34.90
70050;BMP180;57391;51.306;22.680;2022-08-19T10:16:23;99560.40;;;34.94
70050;BMP180;57391;51.306;22.680;2022-08-19T10:18:53;99554.40;;;35.00
70050;BMP180;57391;51.306;22.680;2022-08-19T10:21:31;99546.60;;;35.00
70050;BMP180;57391;51.306;22.680;2022-08-19T10:24:01;99552.00;;;35.00
70050;BMP180;57391;51.306;22.680;2022-08-19T10:26:36;99559.00;;;34.90
70050;BMP180;57391;51.306;22.680;2022-08-19T10:29:05;99560.80;;;34.84
70050;BMP180;57391;51.306;22.680;2022-08-19T10:31:34;99565.00;;;34.70
70050;BMP180;57391;51.306;22.680;2022-08-19T10:34:01;99565.40;;;34.60
70050;BMP180;57391;51.306;22.680;2022-08-19T10:36:33;99568.60;;;34.60
70050;BMP180;57391;51.306;22.680;2022-08-19T10:39:08;99571.60;;;34.60
70050;BMP180;57391;51.306;22.680;2022-08-19T10:41:38;99578.80;;;34.60
70050;BMP180;57391;51.306;22.680;2022-08-19T10:44:09;99583.20;;;34.60
70050;BMP180;57391;51.306;22.680;2022-08-19T10:46:41;99569.40;;;34.60
70050;BMP180;57391;51.306;22.680;2022-08-19T10:49:10;99567.00;;;34.70
70050;BMP180;57391;51.306;22.680;2022-08-19T10:51:41;99568.20;;;34.70
70050;BMP180;57391;51.306;22.680;2022-08-19T10:54:27;99566.80;;;34.70
70050;BMP180;57391;51.306;22.680;2022-08-19T10:57:15;99572.20;;;34.60
70050;BMP180;57391;51.306;22.680;2022-08-19T10:59:42;99570.60;;;34.60
70050;BMP180;57391;51.306;22.680;2022-08-19T11:02:11;99578.00;;;34.70
70050;BMP180;57391;51.306;22.680;2022-08-19T11:04:40;99577.00;;;34.70
70050;BMP180;57391;51.306;22.680;2022-08-19T11:07:08;99568.00;;;34.70
70050;BMP180;57391;51.306;22.680;2022-08-19T11:09:41;99572.60;;;34.60
70050;BMP180;57391;51.306;22.680;2022-08-19T11:12:10;99570.20;;;34.50
70050;BMP180;57391;51.306;22.680;2022-08-19T11:14:39;99570.60;;;34.60
70050;BMP180;57391;51.306;22.680;2022-08-19T11:17:07;99568.00;;;34.70
70050;BMP180;57391;51.306;22.680;2022-08-19T11:19:34;99572.00;;;34.70
70050;BMP180;57391;51.306;22.680;2022-08-19T11:22:02;99575.60;;;34.80
70050;BMP180;57391;51.306;22.680;2022-08-19T11:24:31;99566.20;;;34.60
70050;BMP180;57391;51.306;22.680;2022-08-19T11:27:08;99559.40;;;34.50
70050;BMP180;57391;51.306;22.680;2022-08-19T11:29:39;99559.40;;;34.42
70050;BMP180;57391;51.306;22.680;2022-08-19T11:32:10;99549.60;;;34.40
70050;BMP180;57391;51.306;22.680;2022-08-19T11:34:38;99540.40;;;34.42
70050;BMP180;57391;51.306;22.680;2022-08-19T11:37:07;99542.00;;;34.50
70050;BMP180;57391;51.306;22.680;2022-08-19T11:39:36;99541.80;;;34.32
70050;BMP180;57391;51.306;22.680;2022-08-19T11:42:06;99534.60;;;34.30
70050;BMP180;57391;51.306;22.680;2022-08-19T11:44:54;99527.00;;;34.40
70050;BMP180;57391;51.306;22.680;2022-08-19T11:47:21;99523.80;;;34.34
70050;BMP180;57391;51.306;22.680;2022-08-19T11:49:48;99526.40;;;34.20
70050;BMP180;57391;51.306;22.680;2022-08-19T11:52:16;99527.20;;;34.10
70050;BMP180;57391;51.306;22.680;2022-08-19T11:54:43;99525.80;;;34.10
70050;BMP180;57391;51.306;22.680;2022-08-19T11:57:10;99529.20;;;34.00
70050;BMP180;57391;51.306;22.680;2022-08-19T11:59:37;99525.40;;;33.90
70050;BMP180;57391;51.306;22.680;2022-08-19T12:02:05;99530.40;;;33.82
70050;BMP180;57391;51.306;22.680;2022-08-19T12:04:32;99524.20;;;33.80
70050;BMP180;57391;51.306;22.680;2022-08-19T12:06:59;99524.80;;;33.70
70050;BMP180;57391;51.306;22.680;2022-08-19T12:09:27;99517.40;;;33.60
70050;BMP180;57391;51.306;22.680;2022-08-19T12:11:54;99522.20;;;33.60
70050;BMP180;57391;51.306;22.680;2022-08-19T12:14:22;99518.60;;;33.50
70050;BMP180;57391;51.306;22.680;2022-08-19T12:16:49;99523.40;;;33.40
70050;BMP180;57391;51.306;22.680;2022-08-19T12:19:16;99519.20;;;33.30
70050;BMP180;57391;51.306;22.680;2022-08-19T12:21:44;99510.40;;;33.30
70050;BMP180;57391;51.306;22.680;2022-08-19T12:24:11;99512.00;;;33.20
70050;BMP180;57391;51.306;22.680;2022-08-19T12:26:38;99510.40;;;33.10
70050;BMP180;57391;51.306;22.680;2022-08-19T12:29:05;99516.60;;;33.10
70050;BMP180;57391;51.306;22.680;2022-08-19T12:31:33;99510.80;;;33.00
70050;BMP180;57391;51.306;22.680;2022-08-19T12:34:01;99511.80;;;32.86
70050;BMP180;57391;51.306;22.680;2022-08-19T12:36:29;99514.60;;;32.80
70050;BMP180;57391;51.306;22.680;2022-08-19T12:38:58;99516.60;;;32.80
70050;BMP180;57391;51.306;22.680;2022-08-19T12:41:26;99513.60;;;32.70
70050;BMP180;57391;51.306;22.680;2022-08-19T12:43:53;99509.20;;;32.70
70050;BMP180;57391;51.306;22.680;2022-08-19T12:46:22;99507.80;;;32.68
70050;BMP180;57391;51.306;22.680;2022-08-19T12:48:49;99505.20;;;32.60
70050;BMP180;57391;51.306;22.680;2022-08-19T12:51:18;99496.80;;;32.60
70050;BMP180;57391;51.306;22.680;2022-08-19T12:53:47;99512.40;;;32.60
70050;BMP180;57391;51.306;22.680;2022-08-19T12:56:14;99498.60;;;32.50
70050;BMP180;57391;51.306;22.680;2022-08-19T12:58:42;99495.40;;;32.50
70050;BMP180;57391;51.306;22.680;2022-08-19T13:01:15;99498.40;;;32.60
70050;BMP180;57391;51.306;22.680;2022-08-19T13:03:46;99499.40;;;32.60
70050;BMP180;57391;51.306;22.680;2022-08-19T13:06:13;99497.20;;;32.60
70050;BMP180;57391;51.306;22.680;2022-08-19T13:08:41;99492.80;;;32.50
70050;BMP180;57391;51.306;22.680;2022-08-19T13:11:14;99495.00;;;32.50
70050;BMP180;57391;51.306;22.680;2022-08-19T13:13:47;99494.00;;;32.48
70050;BMP180;57391;51.306;22.680;2022-08-19T13:16:15;99492.60;;;32.40
70050;BMP180;57391;51.306;22.680;2022-08-19T13:18:45;99493.40;;;32.30
70050;BMP180;57391;51.306;22.680;2022-08-19T13:21:14;99496.20;;;32.20
70050;BMP180;57391;51.306;22.680;2022-08-19T13:23:41;99499.20;;;32.20
70050;BMP180;57391;51.306;22.680;2022-08-19T13:26:10;99495.40;;;32.20
70050;BMP180;57391;51.306;22.680;2022-08-19T13:28:40;99492.00;;;32.20
70050;BMP180;57391;51.306;22.680;2022-08-19T13:31:31;99487.80;;;32.20
70050;BMP180;57391;51.306;22.680;2022-08-19T13:34:26;99485.80;;;32.10
70050;BMP180;57391;51.306;22.680;2022-08-19T13:36:53;99488.80;;;32.00
70050;BMP180;57391;51.306;22.680;2022-08-19T13:39:20;99489.60;;;32.00
70050;BMP180;57391;51.306;22.680;2022-08-19T13:41:49;99485.00;;;31.90
70050;BMP180;57391;51.306;22.680;2022-08-19T13:44:18;99485.60;;;31.90
70050;BMP180;57391;51.306;22.680;2022-08-19T13:46:47;99490.20;;;31.90
70050;BMP180;57391;51.306;22.680;2022-08-19T13:49:15;99483.00;;;31.88
70050;BMP180;57391;51.306;22.680;2022-08-19T13:51:43;99483.40;;;31.80
70050;BMP180;57391;51.306;22.680;2022-08-19T13:54:11;99482.20;;;31.74
70050;BMP180;57391;51.306;22.680;2022-08-19T13:56:45;99481.20;;;31.70
70050;BMP180;57391;51.306;22.680;2022-08-19T13:59:12;99479.00;;;31.70
70050;BMP180;57391;51.306;22.680;2022-08-19T14:01:40;99481.80;;;31.70
70050;BMP180;57391;51.306;22.680;2022-08-19T14:04:08;99481.60;;;31.60
70050;BMP180;57391;51.306;22.680;2022-08-19T14:06:36;99480.40;;;31.60
70050;BMP180;57391;51.306;22.680;2022-08-19T14:09:03;99484.00;;;31.50
70050;BMP180;57391;51.306;22.680;2022-08-19T14:11:31;99482.40;;;31.50
70050;BMP180;57391;51.306;22.680;2022-08-19T14:13:58;99480.00;;;31.40
70050;BMP180;57391;51.306;22.680;2022-08-19T14:16:25;99477.80;;;31.50
70050;BMP180;57391;51.306;22.680;2022-08-19T14:18:54;99480.60;;;31.50
70050;BMP180;57391;51.306;22.680;2022-08-19T14:21:24;99482.60;;;31.50
70050;BMP180;57391;51.306;22.680;2022-08-19T14:23:53;99481.80;;;31.50
70050;BMP180;57391;51.306;22.680;2022-08-19T14:26:21;99482.80;;;31.50
70050;BMP180;57391;51.306;22.680;2022-08-19T14:28:49;99486.00;;;31.50
70050;BMP180;57391;51.306;22.680;2022-08-19T14:31:18;99485.20;;;31.48
70050;BMP180;57391;51.306;22.680;2022-08-19T14:33:47;99483.00;;;31.42
70050;BMP180;57391;51.306;22.680;2022-08-19T14:36:15;99477.40;;;31.40
70050;BMP180;57391;51.306;22.680;2022-08-19T14:38:43;99482.00;;;31.40
70050;BMP180;57391;51.306;22.680;2022-08-19T14:41:18;99475.40;;;31.30
70050;BMP180;57391;51.306;22.680;2022-08-19T14:43:50;99471.80;;;31.30
70050;BMP180;57391;51.306;22.680;2022-08-19T14:46:22;99475.80;;;31.24
70050;BMP180;57391;51.306;22.680;2022-08-19T14:48:51;99470.80;;;31.20
70050;BMP180;57391;51.306;22.680;2022-08-19T14:51:21;99469.00;;;31.18
70050;BMP180;57391;51.306;22.680;2022-08-19T14:53:50;99460.60;;;31.10
70050;BMP180;57391;51.306;22.680;2022-08-19T14:56:22;99454.00;;;31.10
70050;BMP180;57391;51.306;22.680;2022-08-19T14:58:50;99451.40;;;31.00
70050;BMP180;57391;51.306;22.680;2022-08-19T15:01:21;99444.20;;;30.90
70050;BMP180;57391;51.306;22.680;2022-08-19T15:03:49;99441.80;;;30.80
70050;BMP180;57391;51.306;22.680;2022-08-19T15:06:24;99447.20;;;30.80
70050;BMP180;57391;51.306;22.680;2022-08-19T15:08:52;99446.00;;;30.70
70050;BMP180;57391;51.306;22.680;2022-08-19T15:11:25;99450.60;;;30.70
70050;BMP180;57391;51.306;22.680;2022-08-19T15:13:55;99454.40;;;30.60
70050;BMP180;57391;51.306;22.680;2022-08-19T15:16:24;99464.80;;;30.60
70050;BMP180;57391;51.306;22.680;2022-08-19T15:18:55;99466.60;;;30.54
70050;BMP180;57391;51.306;22.680;2022-08-19T15:21:26;99467.40;;;30.50
70050;BMP180;57391;51.306;22.680;2022-08-19T15:23:57;99462.20;;;30.50
70050;BMP180;57391;51.306;22.680;2022-08-19T15:26:25;99466.60;;;30.50
70050;BMP180;57391;51.306;22.680;2022-08-19T15:28:54;99465.40;;;30.40
70050;BMP180;57391;51.306;22.680;2022-08-19T15:31:21;99471.60;;;30.40
70050;BMP180;57391;51.306;22.680;2022-08-19T15:33:49;99471.40;;;30.40
70050;BMP180;57391;51.306;22.680;2022-08-19T15:36:16;99468.20;;;30.34
70050;BMP180;57391;51.306;22.680;2022-08-19T15:38:43;99470.80;;;30.30
70050;BMP180;57391;51.306;22.680;2022-08-19T15:41:19;99473.20;;;30.22
70050;BMP180;57391;51.306;22.680;2022-08-19T15:44:06;99474.20;;;30.20
70050;BMP180;57391;51.306;22.680;2022-08-19T15:46:39;99477.20;;;30.20
70050;BMP180;57391;51.306;22.680;2022-08-19T15:49:10;99478.60;;;30.10
70050;BMP180;57391;51.306;22.680;2022-08-19T15:51:40;99476.60;;;30.10
70050;BMP180;57391;51.306;22.680;2022-08-19T15:54:13;99480.40;;;30.08
70050;BMP180;57391;51.306;22.680;2022-08-19T15:56:40;99479.20;;;30.00
70050;BMP180;57391;51.306;22.680;2022-08-19T15:59:26;99487.60;;;30.00
70050;BMP180;57391;51.306;22.680;2022-08-19T16:02:12;99487.60;;;29.90
70050;BMP180;57391;51.306;22.680;2022-08-19T16:04:58;99488.20;;;29.90
70050;BMP180;57391;51.306;22.680;2022-08-19T16:07:43;99492.00;;;29.80
70050;BMP180;57391;51.306;22.680;2022-08-19T16:10:11;99492.80;;;29.80
70050;BMP180;57391;51.306;22.680;2022-08-19T16:12:40;99491.40;;;29.70
70050;BMP180;57391;51.306;22.680;2022-08-19T16:15:10;99492.40;;;29.68
70050;BMP180;57391;51.306;22.680;2022-08-19T16:17:37;99490.00;;;29.60
70050;BMP180;57391;51.306;22.680;2022-08-19T16:20:05;99485.20;;;29.60
70050;BMP180;57391;51.306;22.680;2022-08-19T16:22:35;99485.00;;;29.50
70050;BMP180;57391;51.306;22.680;2022-08-19T16:25:05;99480.20;;;29.48
70050;BMP180;57391;51.306;22.680;2022-08-19T16:27:35;99486.00;;;29.40
70050;BMP180;57391;51.306;22.680;2022-08-19T16:30:03;99484.20;;;29.34
70050;BMP180;57391;51.306;22.680;2022-08-19T16:32:31;99482.80;;;29.30
70050;BMP180;57391;51.306;22.680;2022-08-19T16:34:58;99478.40;;;29.20
70050;BMP180;57391;51.306;22.680;2022-08-19T16:37:25;99477.40;;;29.20
70050;BMP180;57391;51.306;22.680;2022-08-19T16:39:52;99473.20;;;29.10
70050;BMP180;57391;51.306;22.680;2022-08-19T16:42:19;99471.00;;;29.00
70050;BMP180;57391;51.306;22.680;2022-08-19T16:44:47;99467.60;;;28.94
70050;BMP180;57391;51.306;22.680;2022-08-19T16:47:14;99465.20;;;28.90
70050;BMP180;57391;51.306;22.680;2022-08-19T16:49:43;99464.80;;;28.80
70050;BMP180;57391;51.306;22.680;2022-08-19T16:52:10;99459.20;;;28.70
70050;BMP180;57391;51.306;22.680;2022-08-19T16:54:38;99463.00;;;28.60
70050;BMP180;57391;51.306;22.680;2022-08-19T16:57:05;99460.60;;;28.50
70050;BMP180;57391;51.306;22.680;2022-08-19T16:59:34;99453.60;;;28.40
70050;BMP180;57391;51.306;22.680;2022-08-19T17:02:01;99450.80;;;28.30
70050;BMP180;57391;51.306;22.680;2022-08-19T17:04:28;99447.00;;;28.28
70050;BMP180;57391;51.306;22.680;2022-08-19T17:06:55;99449.60;;;28.14
70050;BMP180;57391;51.306;22.680;2022-08-19T17:09:23;99454.80;;;28.10
70050;BMP180;57391;51.306;22.680;2022-08-19T17:11:50;99453.00;;;28.00
70050;BMP180;57391;51.306;22.680;2022-08-19T17:14:18;99460.60;;;27.90
70050;BMP180;57391;51.306;22.680;2022-08-19T17:16:46;99452.60;;;27.80
70050;BMP180;57391;51.306;22.680;2022-08-19T17:19:13;99448.40;;;27.70
70050;BMP180;57391;51.306;22.680;2022-08-19T17:21:40;99450.60;;;27.70
70050;BMP180;57391;51.306;22.680;2022-08-19T17:24:08;99445.00;;;27.58
70050;BMP180;57391;51.306;22.680;2022-08-19T17:26:37;99440.60;;;27.50
70050;BMP180;57391;51.306;22.680;2022-08-19T17:29:05;99442.20;;;27.40
70050;BMP180;57391;51.306;22.680;2022-08-19T17:31:32;99444.80;;;27.30
70050;BMP180;57391;51.306;22.680;2022-08-19T17:34:01;99452.40;;;27.24
70050;BMP180;57391;51.306;22.680;2022-08-19T17:36:31;99449.60;;;27.20
70050;BMP180;57391;51.306;22.680;2022-08-19T17:39:03;99455.20;;;27.10
70050;BMP180;57391;51.306;22.680;2022-08-19T17:41:31;99457.20;;;27.10
70050;BMP180;57391;51.306;22.680;2022-08-19T17:44:02;99453.80;;;27.00
70050;BMP180;57391;51.306;22.680;2022-08-19T17:46:30;99460.20;;;27.00
70050;BMP180;57391;51.306;22.680;2022-08-19T17:48:57;99460.00;;;26.90
70050;BMP180;57391;51.306;22.680;2022-08-19T17:53:59;99464.80;;;26.80
70050;BMP180;57391;51.306;22.680;2022-08-19T17:56:27;99467.40;;;26.70
70050;BMP180;57391;51.306;22.680;2022-08-19T17:58:57;99462.60;;;26.66
70050;BMP180;57391;51.306;22.680;2022-08-19T18:01:24;99461.60;;;26.60
70050;BMP180;57391;51.306;22.680;2022-08-19T18:03:51;99462.00;;;26.50
70050;BMP180;57391;51.306;22.680;2022-08-19T18:06:19;99460.60;;;26.40
70050;BMP180;57391;51.306;22.680;2022-08-19T18:08:46;99463.00;;;26.40
70050;BMP180;57391;51.306;22.680;2022-08-19T18:11:15;99467.20;;;26.30
70050;BMP180;57391;51.306;22.680;2022-08-19T18:13:43;99467.40;;;26.30
70050;BMP180;57391;51.306;22.680;2022-08-19T18:16:10;99468.20;;;26.20
70050;BMP180;57391;51.306;22.680;2022-08-19T18:18:40;99468.80;;;26.20
70050;BMP180;57391;51.306;22.680;2022-08-19T18:21:09;99468.80;;;26.10
70050;BMP180;57391;51.306;22.680;2022-08-19T18:23:37;99474.60;;;26.10
70050;BMP180;57391;51.306;22.680;2022-08-19T18:26:04;99476.60;;;26.10
70050;BMP180;57391;51.306;22.680;2022-08-19T18:28:33;99480.00;;;26.00
70050;BMP180;57391;51.306;22.680;2022-08-19T18:31:00;99476.60;;;26.00
70050;BMP180;57391;51.306;22.680;2022-08-19T18:33:29;99474.60;;;25.90
70050;BMP180;57391;51.306;22.680;2022-08-19T18:35:56;99475.60;;;25.90
70050;BMP180;57391;51.306;22.680;2022-08-19T18:38:23;99481.60;;;25.90
70050;BMP180;57391;51.306;22.680;2022-08-19T18:41:09;99485.20;;;25.80
70050;BMP180;57391;51.306;22.680;2022-08-19T18:43:55;99480.60;;;25.80
70050;BMP180;57391;51.306;22.680;2022-08-19T18:46:41;99479.80;;;25.80
70050;BMP180;57391;51.306;22.680;2022-08-19T18:49:31;99485.40;;;25.70
70050;BMP180;57391;51.306;22.680;2022-08-19T18:51:59;99486.20;;;25.70
70050;BMP180;57391;51.306;22.680;2022-08-19T18:54:30;99487.40;;;25.60
70050;BMP180;57391;51.306;22.680;2022-08-19T18:56:59;99487.40;;;25.60
70050;BMP180;57391;51.306;22.680;2022-08-19T18:59:27;99488.20;;;25.60
70050;BMP180;57391;51.306;22.680;2022-08-19T19:01:57;99481.80;;;25.60
70050;BMP180;57391;51.306;22.680;2022-08-19T19:04:31;99485.20;;;25.50
70050;BMP180;57391;51.306;22.680;2022-08-19T19:07:07;99494.80;;;25.50
70050;BMP180;57391;51.306;22.680;2022-08-19T19:09:35;99494.60;;;25.50
70050;BMP180;57391;51.306;22.680;2022-08-19T19:12:29;99497.40;;;25.50
70050;BMP180;57391;51.306;22.680;2022-08-19T19:14:57;99494.00;;;25.40
70050;BMP180;57391;51.306;22.680;2022-08-19T19:17:25;99495.20;;;25.40
70050;BMP180;57391;51.306;22.680;2022-08-19T19:20:14;99497.00;;;25.30
70050;BMP180;57391;51.306;22.680;2022-08-19T19:22:43;99501.00;;;25.30
70050;BMP180;57391;51.306;22.680;2022-08-19T19:25:10;99503.60;;;25.22
70050;BMP180;57391;51.306;22.680;2022-08-19T19:27:37;99507.00;;;25.20
70050;BMP180;57391;51.306;22.680;2022-08-19T19:30:07;99508.40;;;25.18
70050;BMP180;57391;51.306;22.680;2022-08-19T19:32:35;99508.00;;;25.10
70050;BMP180;57391;51.306;22.680;2022-08-19T19:35:06;99507.80;;;25.10
70050;BMP180;57391;51.306;22.680;2022-08-19T19:37:34;99506.40;;;25.00
70050;BMP180;57391;51.306;22.680;2022-08-19T19:40:02;99507.00;;;25.00
70050;BMP180;57391;51.306;22.680;2022-08-19T19:42:29;99508.20;;;24.90
70050;BMP180;57391;51.306;22.680;2022-08-19T19:44:56;99514.00;;;24.80
70050;BMP180;57391;51.306;22.680;2022-08-19T19:47:24;99516.40;;;24.80
70050;BMP180;57391;51.306;22.680;2022-08-19T19:50:15;99517.40;;;24.70
70050;BMP180;57391;51.306;22.680;2022-08-19T19:52:45;99518.20;;;24.70
70050;BMP180;57391;51.306;22.680;2022-08-19T19:55:15;99516.00;;;24.60
70050;BMP180;57391;51.306;22.680;2022-08-19T19:57:48;99517.00;;;24.50
70050;BMP180;57391;51.306;22.680;2022-08-19T20:00:17;99517.20;;;24.50
70050;BMP180;57391;51.306;22.680;2022-08-19T20:02:46;99508.80;;;24.40
70050;BMP180;57391;51.306;22.680;2022-08-19T20:05:13;99506.80;;;24.30
70050;BMP180;57391;51.306;22.680;2022-08-19T20:07:40;99507.20;;;24.20
70050;BMP180;57391;51.306;22.680;2022-08-19T20:10:26;99508.60;;;24.20
70050;BMP180;57391;51.306;22.680;2022-08-19T20:12:54;99508.80;;;24.10
70050;BMP180;57391;51.306;22.680;2022-08-19T20:15:22;99512.00;;;24.00
70050;BMP180;57391;51.306;22.680;2022-08-19T20:17:50;99515.60;;;24.00
70050;BMP180;57391;51.306;22.680;2022-08-19T20:20:17;99509.60;;;24.00